Time;durP1;ratioP1;P1;durP2;ratioP2;P2;SDS_P1;SDS_P2;PMS_P1;PMS_P2;Temp;Humidity;BMP_temperature;BMP_pressure;BME280_temperature;BME280_humidity;BME280_pressure;Samples;Min_cycle;Max_cycle;Signal;HPM_P1;HPM_P2
2024/01/27 00:01:47;;;;;;;39.15;11.30;;;1.70;99.90;;;;;;6097662;23;20020;-74
2024/01/27 00:04:13;;;;;;;13.80;3.75;;;1.80;99.90;;;;;;6097941;23;20460;-74
2024/01/27 00:06:38;;;;;;;13.38;4.70;;;1.80;99.90;;;;;;6098859;23;20041;-74
2024/01/27 00:09:06;;;;;;;37.72;11.80;;;1.80;99.90;;;;;;6099813;23;20061;-74
2024/01/27 00:11:31;;;;;;;42.38;11.80;;;1.70;99.90;;;;;;6097466;23;20021;-74
2024/01/27 00:13:59;;;;;;;17.90;4.00;;;1.80;99.90;;;;;;6099712;23;20014;-74
2024/01/27 00:16:24;;;;;;;33.00;10.73;;;1.80;99.90;;;;;;6124148;23;20474;-74
2024/01/27 00:18:50;;;;;;;38.03;12.55;;;1.90;99.90;;;;;;6098193;23;20010;-74
2024/01/27 00:21:16;;;;;;;34.95;11.60;;;1.90;99.90;;;;;;6100139;23;20009;-74
2024/01/27 00:23:41;;;;;;;34.58;11.15;;;1.90;99.90;;;;;;6097728;23;20014;-75
2024/01/27 00:26:07;;;;;;;32.55;10.75;;;2.00;99.90;;;;;;6098015;23;20021;-74
2024/01/27 00:28:32;;;;;;;23.33;4.25;;;2.00;99.90;;;;;;6100610;23;20036;-74
2024/01/27 00:30:58;;;;;;;32.72;10.38;;;1.90;99.90;;;;;;6126011;23;20037;-74
2024/01/27 00:33:24;;;;;;;28.60;10.32;;;1.90;99.90;;;;;;6124590;23;20455;-74
2024/01/27 00:35:49;;;;;;;14.43;3.83;;;1.90;99.90;;;;;;6100876;23;20037;-74
2024/01/27 00:38:15;;;;;;;10.48;3.90;;;1.90;99.90;;;;;;6097731;23;20399;-73
2024/01/27 00:40:40;;;;;;;17.23;3.90;;;1.80;99.90;;;;;;6099245;23;20018;-74
2024/01/27 00:43:06;;;;;;;29.05;10.63;;;1.80;99.90;;;;;;6097966;23;20018;-74
2024/01/27 00:45:32;;;;;;;27.52;10.48;;;1.80;99.90;;;;;;6098998;23;20321;-74
2024/01/27 00:47:57;;;;;;;39.25;11.52;;;1.80;99.90;;;;;;6098535;23;20016;-74
2024/01/27 00:50:23;;;;;;;32.13;10.15;;;1.80;99.90;;;;;;6099106;23;20016;-74
2024/01/27 00:52:49;;;;;;;32.22;11.00;;;1.80;99.90;;;;;;6098678;23;20045;-74
2024/01/27 00:55:15;;;;;;;34.38;11.05;;;1.90;99.90;;;;;;6098694;23;20029;-74
2024/01/27 00:57:40;;;;;;;32.97;10.88;;;1.90;99.90;;;;;;6123747;23;20014;-75
2024/01/27 01:00:08;;;;;;;16.27;4.25;;;1.80;99.90;;;;;;6099412;23;20022;-74
2024/01/27 01:02:34;;;;;;;32.30;10.98;;;1.80;99.90;;;;;;6098680;23;20018;-74
2024/01/27 01:05:00;;;;;;;30.92;9.90;;;1.80;99.90;;;;;;6098060;23;20014;-74
2024/01/27 01:07:26;;;;;;;20.73;4.13;;;1.80;99.90;;;;;;6098483;23;20061;-74
2024/01/27 01:09:51;;;;;;;14.63;3.67;;;1.80;99.90;;;;;;6099007;23;20010;-74
2024/01/27 01:12:17;;;;;;;26.92;9.73;;;1.70;99.90;;;;;;6098652;23;20014;-74
2024/01/27 01:14:45;;;;;;;33.67;11.13;;;1.80;99.90;;;;;;6123017;23;20019;-74
2024/01/27 01:17:11;;;;;;;32.97;9.98;;;1.90;99.90;;;;;;6097808;23;20069;-75
2024/01/27 01:19:37;;;;;;;30.55;9.48;;;1.80;99.90;;;;;;6099511;23;20014;-74
2024/01/27 01:22:04;;;;;;;29.73;10.95;;;1.80;99.90;;;;;;6123019;23;20486;-74
2024/01/27 01:24:30;;;;;;;13.68;3.60;;;1.70;99.90;;;;;;6098086;23;20014;-74
2024/01/27 01:26:55;;;;;;;28.05;9.38;;;1.70;99.90;;;;;;6123437;23;20137;-75
2024/01/27 01:29:22;;;;;;;36.80;11.07;;;1.70;99.90;;;;;;6098471;23;20014;-74
2024/01/27 01:31:48;;;;;;;14.93;3.28;;;1.70;99.90;;;;;;6098563;23;20096;-74
2024/01/27 01:34:14;;;;;;;36.60;10.70;;;1.80;99.90;;;;;;6100788;23;20014;-74
2024/01/27 01:36:39;;;;;;;30.70;9.55;;;1.70;99.90;;;;;;6125787;23;20014;-74
2024/01/27 01:39:06;;;;;;;23.30;3.72;;;1.70;99.90;;;;;;6097113;23;20056;-74
2024/01/27 01:41:31;;;;;;;32.30;10.18;;;1.70;99.90;;;;;;6101367;23;20014;-74
2024/01/27 01:43:57;;;;;;;32.97;9.82;;;1.80;99.90;;;;;;6100644;23;20042;-74
2024/01/27 01:46:26;;;;;;;26.98;9.70;;;1.70;99.90;;;;;;6100378;23;20076;-74
2024/01/27 01:48:51;;;;;;;31.90;9.48;;;1.80;99.90;;;;;;6122870;23;20092;-74
2024/01/27 01:51:17;;;;;;;18.65;3.03;;;1.80;99.90;;;;;;6101507;23;20014;-74
2024/01/27 01:53:47;;;;;;;32.33;9.82;;;1.80;99.90;;;;;;6101873;23;20021;-74
2024/01/27 01:56:15;;;;;;;32.70;8.85;;;1.80;99.90;;;;;;6101465;23;20065;-74
2024/01/27 01:58:40;;;;;;;35.22;10.55;;;1.80;99.90;;;;;;6126990;23;20014;-74
2024/01/27 02:01:06;;;;;;;15.50;4.78;;;1.80;99.90;;;;;;6128511;23;20104;-74
2024/01/27 02:03:31;;;;;;;15.38;2.60;;;1.80;99.90;;;;;;6128428;23;20013;-74
2024/01/27 02:05:57;;;;;;;12.93;3.13;;;1.80;99.90;;;;;;6127652;23;20018;-74
2024/01/27 02:08:25;;;;;;;13.70;3.00;;;1.80;99.90;;;;;;6101261;23;20017;-74
2024/01/27 02:10:51;;;;;;;27.88;9.05;;;1.80;99.90;;;;;;6103628;23;20095;-74
2024/01/27 02:13:21;;;;;;;26.95;9.95;;;1.80;99.90;;;;;;6101836;23;20018;-74
2024/01/27 02:15:47;;;;;;;21.70;4.28;;;1.90;99.90;;;;;;6126803;23;20017;-74
2024/01/27 02:18:13;;;;;;;26.25;8.95;;;1.80;99.90;;;;;;6101625;23;20490;-74
2024/01/27 02:20:39;;;;;;;33.40;9.20;;;1.80;99.90;;;;;;6104307;23;20018;-74
2024/01/27 02:23:05;;;;;;;28.13;9.35;;;1.80;99.90;;;;;;6128822;23;20347;-74
2024/01/27 02:25:35;;;;;;;12.60;3.95;;;1.80;99.90;;;;;;6101673;23;20014;-74
2024/01/27 02:28:02;;;;;;;27.73;9.00;;;1.80;99.90;;;;;;6102133;23;20045;-74
2024/01/27 02:30:28;;;;;;;28.52;8.90;;;1.70;99.90;;;;;;6126582;23;20093;-74
2024/01/27 02:32:56;;;;;;;17.27;3.63;;;1.70;99.90;;;;;;6128704;23;20338;-74
2024/01/27 02:35:21;;;;;;;30.95;9.90;;;1.70;99.90;;;;;;6103679;23;20021;-74
2024/01/27 02:37:47;;;;;;;17.55;3.33;;;1.70;99.90;;;;;;6102974;23;20017;-74
2024/01/27 02:40:14;;;;;;;28.80;9.18;;;1.70;99.90;;;;;;6102354;23;19998;-74
2024/01/27 02:42:42;;;;;;;31.25;9.27;;;1.70;99.90;;;;;;6102142;23;20080;-75
2024/01/27 02:45:08;;;;;;;13.48;3.78;;;1.70;99.90;;;;;;6103195;23;20014;-74
2024/01/27 02:47:33;;;;;;;29.85;9.73;;;1.70;99.90;;;;;;6128233;23;20242;-74
2024/01/27 02:49:59;;;;;;;31.20;9.63;;;1.70;99.90;;;;;;6104259;23;20017;-74
2024/01/27 02:52:25;;;;;;;13.70;3.38;;;1.70;99.90;;;;;;6105786;23;20014;-74
2024/01/27 02:54:51;;;;;;;10.68;2.92;;;1.60;99.90;;;;;;6105585;23;20354;-74
2024/01/27 02:57:17;;;;;;;29.35;9.77;;;1.60;99.90;;;;;;6105175;23;20014;-74
2024/01/27 02:59:49;;;;;;;30.63;8.65;;;1.50;99.90;;;;;;6128731;23;20088;-74
2024/01/27 03:02:17;;;;;;;30.58;9.85;;;1.60;99.90;;;;;;6096407;23;20017;-74
2024/01/27 03:04:43;;;;;;;19.73;4.05;;;1.50;99.90;;;;;;6099696;23;20018;-74
2024/01/27 03:07:09;;;;;;;16.77;2.70;;;1.50;99.90;;;;;;6124709;23;20105;-74
2024/01/27 03:09:34;;;;;;;27.48;8.48;;;1.50;99.90;;;;;;6100296;23;20458;-74
2024/01/27 03:12:00;;;;;;;35.72;9.05;;;1.50;99.90;;;;;;6127394;23;20018;-74
2024/01/27 03:14:26;;;;;;;14.05;4.10;;;1.50;99.90;;;;;;6100875;23;20049;-74
2024/01/27 03:16:52;;;;;;;34.55;11.40;;;1.50;99.90;;;;;;6124924;23;20014;-74
2024/01/27 03:19:17;;;;;;;9.98;2.95;;;1.50;99.90;;;;;;6123811;23;20065;-74
2024/01/27 03:21:43;;;;;;;15.57;3.38;;;1.50;99.90;;;;;;6101714;23;20076;-74
2024/01/27 03:24:09;;;;;;;12.98;3.20;;;1.50;99.90;;;;;;6102971;23;20021;-74
2024/01/27 03:26:34;;;;;;;33.17;8.77;;;1.40;99.90;;;;;;6099257;23;20037;-74
2024/01/27 03:29:00;;;;;;;34.58;9.32;;;1.40;99.90;;;;;;6100999;23;20016;-74
2024/01/27 03:31:33;;;;;;;37.88;9.98;;;1.40;99.90;;;;;;6101050;23;20340;-74
2024/01/27 03:34:00;;;;;;;32.83;9.65;;;1.40;99.90;;;;;;6102275;23;20010;-74
2024/01/27 03:36:26;;;;;;;16.30;4.32;;;1.40;99.90;;;;;;6127352;23;20509;-74
2024/01/27 03:38:52;;;;;;;31.10;10.77;;;1.40;99.90;;;;;;6123662;23;20013;-74
2024/01/27 03:41:17;;;;;;;29.80;9.63;;;1.40;99.90;;;;;;6102586;23;20042;-74
2024/01/27 03:43:43;;;;;;;15.95;3.92;;;1.40;99.90;;;;;;6101686;23;20073;-74
2024/01/27 03:46:08;;;;;;;35.17;10.40;;;1.40;99.90;;;;;;6101473;23;20014;-74
2024/01/27 03:48:35;;;;;;;17.63;3.35;;;1.40;99.90;;;;;;6098955;23;20029;-74
2024/01/27 03:51:01;;;;;;;25.40;8.85;;;1.40;99.90;;;;;;6099711;23;20009;-74
2024/01/27 03:53:27;;;;;;;14.60;3.95;;;1.40;99.90;;;;;;6103176;23;20014;-74
2024/01/27 03:55:53;;;;;;;12.98;3.63;;;1.40;99.90;;;;;;6102316;23;20021;-74
2024/01/27 03:58:19;;;;;;;20.92;3.85;;;1.30;99.90;;;;;;6099929;23;20411;-74
2024/01/27 04:00:44;;;;;;;35.78;10.63;;;1.30;99.90;;;;;;6099168;23;20101;-74
2024/01/27 04:03:10;;;;;;;38.25;10.88;;;1.30;99.90;;;;;;6098989;23;20036;-75
2024/01/27 04:05:36;;;;;;;13.77;3.90;;;1.30;99.90;;;;;;6099660;23;20021;-74
2024/01/27 04:08:02;;;;;;;35.53;11.88;;;1.20;99.90;;;;;;6099096;23;20006;-74
2024/01/27 04:10:28;;;;;;;37.25;12.50;;;1.30;99.90;;;;;;6123774;23;20072;-74
2024/01/27 04:12:53;;;;;;;35.10;12.05;;;1.30;99.90;;;;;;6099101;23;20018;-74
2024/01/27 04:15:19;;;;;;;23.25;4.35;;;1.30;99.90;;;;;;6098734;23;20014;-74
2024/01/27 04:17:44;;;;;;;25.20;4.93;;;1.30;99.90;;;;;;6098796;23;20052;-74
2024/01/27 04:20:11;;;;;;;30.95;12.95;;;1.30;99.90;;;;;;6099190;23;20093;-74
2024/01/27 04:22:36;;;;;;;40.00;14.48;;;1.30;99.90;;;;;;6099661;23;20373;-74
2024/01/27 04:25:03;;;;;;;26.40;5.43;;;1.40;99.90;;;;;;6099296;23;20017;-74
2024/01/27 04:27:29;;;;;;;38.88;16.38;;;1.40;99.90;;;;;;6098944;23;20387;-74
2024/01/27 04:29:56;;;;;;;38.88;15.57;;;1.40;99.90;;;;;;6098686;23;20017;-75
2024/01/27 04:32:22;;;;;;;39.90;17.25;;;1.50;99.90;;;;;;6099068;23;20455;-74
2024/01/27 04:34:48;;;;;;;39.38;16.08;;;1.50;99.90;;;;;;6099080;23;20073;-74
2024/01/27 04:37:13;;;;;;;38.13;18.48;;;1.50;99.90;;;;;;6099718;23;20451;-74
2024/01/27 04:39:39;;;;;;;24.02;6.25;;;1.50;99.90;;;;;;6098945;23;20466;-76
2024/01/27 04:42:08;;;;;;;22.40;5.72;;;1.50;99.90;;;;;;6099540;23;20041;-74
2024/01/27 04:44:35;;;;;;;40.03;18.00;;;1.60;99.90;;;;;;6098628;23;20076;-75
2024/01/27 04:47:00;;;;;;;19.80;5.80;;;1.50;99.90;;;;;;6098325;23;20454;-74
2024/01/27 04:49:26;;;;;;;16.88;5.70;;;1.50;99.90;;;;;;6099372;23;20133;-74
2024/01/27 04:51:51;;;;;;;41.50;18.58;;;1.50;99.90;;;;;;6098969;23;20069;-74
2024/01/27 04:54:17;;;;;;;41.33;19.75;;;1.50;99.90;;;;;;6100675;23;20014;-74
2024/01/27 04:56:43;;;;;;;40.65;19.85;;;1.50;99.90;;;;;;6098977;23;20347;-74
2024/01/27 04:59:08;;;;;;;20.15;6.15;;;1.50;99.90;;;;;;6123464;23;20060;-74
2024/01/27 05:01:34;;;;;;;23.55;6.10;;;1.40;99.90;;;;;;6100116;23;20010;-74
2024/01/27 05:03:59;;;;;;;45.85;20.73;;;1.30;99.90;;;;;;6100795;23;20010;-74
2024/01/27 05:06:25;;;;;;;41.70;21.42;;;1.30;99.90;;;;;;6099330;23;20093;-74
2024/01/27 05:08:51;;;;;;;42.35;20.50;;;1.30;99.90;;;;;;6098590;23;20014;-74
2024/01/27 05:11:26;;;;;;;37.83;19.25;;;1.20;99.90;;;;;;6099882;23;20014;-74
2024/01/27 05:13:52;;;;;;;42.50;20.38;;;1.20;99.90;;;;;;6098956;23;20018;-74
2024/01/27 05:16:17;;;;;;;15.27;5.70;;;1.20;99.90;;;;;;6101223;23;20018;-74
2024/01/27 05:18:43;;;;;;;43.42;21.77;;;1.10;99.90;;;;;;6125602;23;20018;-74
2024/01/27 05:21:08;;;;;;;49.08;24.23;;;1.10;99.90;;;;;;6122816;23;20017;-75
2024/01/27 05:23:34;;;;;;;16.13;6.00;;;1.00;99.90;;;;;;6098173;23;20017;-75
2024/01/27 05:25:59;;;;;;;17.48;6.65;;;1.00;99.90;;;;;;6098740;23;20014;-75
2024/01/27 05:28:25;;;;;;;15.70;7.15;;;1.10;99.90;;;;;;6099225;23;20018;-74
2024/01/27 05:30:51;;;;;;;47.35;25.73;;;1.10;99.90;;;;;;6097894;23;20045;-74
2024/01/27 05:33:16;;;;;;;22.95;7.13;;;1.10;99.90;;;;;;6100263;23;20048;-74
2024/01/27 05:35:42;;;;;;;18.85;7.28;;;1.10;99.90;;;;;;6122762;23;20343;-74
2024/01/27 05:38:08;;;;;;;46.05;28.05;;;1.20;99.90;;;;;;6098758;23;20102;-74
2024/01/27 05:40:33;;;;;;;47.40;27.33;;;1.20;99.90;;;;;;6099582;23;20014;-74
2024/01/27 05:42:59;;;;;;;51.83;29.67;;;1.20;99.90;;;;;;6099101;23;20021;-74
2024/01/27 05:45:26;;;;;;;54.13;30.50;;;1.30;99.90;;;;;;6098111;23;20018;-74
2024/01/27 05:47:52;;;;;;;63.25;34.50;;;1.30;99.90;;;;;;6098585;23;20018;-74
2024/01/27 05:50:17;;;;;;;22.08;8.68;;;1.30;99.90;;;;;;6099888;23;20063;-74
2024/01/27 05:52:43;;;;;;;50.67;32.85;;;1.20;99.90;;;;;;6099496;23;20410;-74
2024/01/27 05:55:09;;;;;;;53.22;32.65;;;1.20;99.90;;;;;;6098637;23;20014;-74
2024/01/27 05:57:35;;;;;;;20.13;8.40;;;1.30;99.90;;;;;;6099284;23;20363;-74
2024/01/27 06:00:01;;;;;;;19.45;8.75;;;1.20;99.90;;;;;;6098149;23;20014;-74
2024/01/27 06:02:27;;;;;;;25.52;10.10;;;1.20;99.90;;;;;;6098205;23;20021;-74
2024/01/27 06:04:52;;;;;;;53.88;30.70;;;1.20;99.90;;;;;;6098912;23;20010;-74
2024/01/27 06:07:18;;;;;;;31.10;10.55;;;1.20;99.90;;;;;;6098491;23;20041;-75
2024/01/27 06:09:43;;;;;;;58.22;33.25;;;1.20;99.90;;;;;;6098718;23;20013;-74
2024/01/27 06:12:09;;;;;;;20.65;9.57;;;1.20;99.90;;;;;;6099740;23;20022;-74
2024/01/27 06:14:35;;;;;;;27.30;9.10;;;1.20;99.90;;;;;;6098534;23;20092;-74
2024/01/27 06:17:03;;;;;;;31.15;8.73;;;1.20;99.90;;;;;;6098374;23;20074;-75
2024/01/27 06:19:29;;;;;;;60.70;34.17;;;1.20;99.90;;;;;;6122687;23;20017;-75
2024/01/27 06:21:54;;;;;;;33.35;10.07;;;1.20;99.90;;;;;;6098152;23;20020;-75
2024/01/27 06:24:20;;;;;;;26.80;8.38;;;1.20;99.90;;;;;;6098367;23;20093;-74
2024/01/27 06:26:45;;;;;;;49.65;31.10;;;1.10;99.90;;;;;;6098600;23;20390;-74
2024/01/27 06:29:11;;;;;;;30.77;10.43;;;1.10;99.90;;;;;;6123042;23;20013;-74
2024/01/27 06:31:37;;;;;;;64.97;37.10;;;1.10;99.90;;;;;;6122968;23;20014;-74
2024/01/27 06:34:02;;;;;;;62.63;35.20;;;1.10;99.90;;;;;;6123958;23;20339;-74
2024/01/27 06:36:28;;;;;;;71.32;38.65;;;1.20;99.90;;;;;;6100647;23;20014;-74
2024/01/27 06:38:54;;;;;;;31.23;8.93;;;1.10;99.90;;;;;;6124584;23;20016;-74
2024/01/27 06:41:20;;;;;;;22.63;9.25;;;1.10;99.90;;;;;;6124697;23;20013;-74
2024/01/27 06:43:46;;;;;;;22.40;8.55;;;1.10;99.90;;;;;;6126033;23;20017;-74
2024/01/27 06:46:11;;;;;;;66.25;37.00;;;1.00;99.90;;;;;;6125068;23;20359;-74
2024/01/27 06:48:37;;;;;;;60.63;36.67;;;1.00;99.90;;;;;;6100954;23;20069;-74
2024/01/27 06:51:04;;;;;;;63.13;37.08;;;1.00;99.90;;;;;;6104728;23;20014;-74
2024/01/27 06:53:29;;;;;;;67.00;38.63;;;1.00;99.90;;;;;;6124643;23;20054;-74
2024/01/27 06:55:55;;;;;;;24.08;9.05;;;0.90;99.90;;;;;;6101780;23;20022;-74
2024/01/27 06:58:21;;;;;;;24.98;8.75;;;0.90;99.90;;;;;;6102007;23;20470;-74
2024/01/27 07:00:46;;;;;;;59.65;36.05;;;0.90;99.90;;;;;;6099416;23;20014;-74
2024/01/27 07:03:12;;;;;;;72.35;40.00;;;0.90;99.90;;;;;;6100787;23;20014;-74
2024/01/27 07:05:40;;;;;;;20.70;9.30;;;0.80;99.90;;;;;;6101531;23;20022;-74
2024/01/27 07:08:09;;;;;;;31.20;8.93;;;0.80;99.90;;;;;;6101168;23;20073;-74
2024/01/27 07:10:35;;;;;;;63.13;37.00;;;0.70;99.90;;;;;;6124793;23;20010;-74
2024/01/27 07:13:01;;;;;;;25.17;8.85;;;0.80;99.90;;;;;;6101329;23;20060;-74
2024/01/27 07:15:29;;;;;;;29.73;9.05;;;0.80;99.90;;;;;;6125887;23;20455;-74
2024/01/27 07:17:55;;;;;;;72.13;42.08;;;0.70;99.90;;;;;;6101808;23;20092;-75
2024/01/27 07:20:23;;;;;;;19.27;8.60;;;0.80;99.90;;;;;;6100635;23;20049;-75
2024/01/27 07:22:48;;;;;;;28.73;8.20;;;0.70;99.90;;;;;;6100768;23;20288;-73
2024/01/27 07:25:14;;;;;;;63.33;33.47;;;0.70;99.90;;;;;;6123695;23;20014;-75
2024/01/27 07:27:39;;;;;;;26.65;8.82;;;0.70;99.90;;;;;;6098471;23;20014;-75
2024/01/27 07:30:08;;;;;;;65.07;36.58;;;0.60;99.90;;;;;;6101004;23;20402;-76
2024/01/27 07:32:34;;;;;;;27.52;9.82;;;0.60;99.90;;;;;;6099819;23;20064;-76
2024/01/27 07:34:59;;;;;;;70.80;40.35;;;0.60;99.90;;;;;;6099200;23;20093;-77
2024/01/27 07:37:25;;;;;;;24.10;9.45;;;0.60;99.90;;;;;;6098677;23;20451;-75
2024/01/27 07:39:51;;;;;;;57.67;37.42;;;0.60;99.90;;;;;;6099129;23;20056;-75
2024/01/27 07:42:17;;;;;;;21.13;9.45;;;0.50;99.90;;;;;;6123944;23;20018;-75
2024/01/27 07:44:42;;;;;;;21.95;8.30;;;0.50;99.90;;;;;;6098574;23;20021;-75
2024/01/27 07:47:11;;;;;;;78.18;42.30;;;0.50;99.90;;;;;;6097689;23;20010;-75
2024/01/27 07:49:37;;;;;;;29.10;9.40;;;0.50;99.90;;;;;;6123539;23;20014;-75
2024/01/27 07:52:02;;;;;;;86.43;48.65;;;0.50;99.90;;;;;;6098968;23;20024;-76
2024/01/27 07:54:29;;;;;;;71.70;44.17;;;0.50;99.90;;;;;;6098453;23;20092;-76
2024/01/27 07:56:54;;;;;;;86.80;51.13;;;0.50;99.90;;;;;;6099155;23;20026;-76
2024/01/27 07:59:20;;;;;;;30.52;11.68;;;0.50;99.90;;;;;;6099605;23;20026;-76
2024/01/27 08:01:45;;;;;;;89.57;54.45;;;0.50;99.90;;;;;;6098557;23;20053;-76
2024/01/27 08:04:11;;;;;;;34.75;12.57;;;0.60;99.90;;;;;;6098271;23;20021;-76
2024/01/27 08:06:48;;;;;;;26.00;10.80;;;0.50;99.90;;;;;;6099437;23;20060;-76
2024/01/27 08:09:14;;;;;;;91.65;55.83;;;0.60;99.90;;;;;;6099597;23;20037;-76
2024/01/27 08:11:39;;;;;;;88.90;59.85;;;0.60;99.90;;;;;;6099686;23;20006;-76
2024/01/27 08:14:05;;;;;;;36.80;13.57;;;0.70;99.90;;;;;;6098620;23;20148;-76
2024/01/27 08:16:30;;;;;;;81.85;56.42;;;0.70;99.90;;;;;;6098688;23;20020;-76
2024/01/27 08:18:56;;;;;;;92.38;63.28;;;0.80;99.90;;;;;;6098389;23;20071;-77
2024/01/27 08:21:22;;;;;;;41.22;16.08;;;0.80;99.90;;;;;;6098959;23;20036;-78
2024/01/27 08:23:48;;;;;;;31.17;14.13;;;1.00;99.90;;;;;;6123692;23;20014;-78
2024/01/27 08:26:14;;;;;;;110.57;73.40;;;1.10;99.90;;;;;;6097057;23;20021;-77
2024/01/27 08:28:39;;;;;;;87.03;65.10;;;1.10;99.90;;;;;;6096752;23;20017;-77
2024/01/27 08:31:05;;;;;;;47.45;19.20;;;1.20;99.90;;;;;;6096425;23;20014;-77
2024/01/27 08:33:31;;;;;;;49.45;18.67;;;1.20;99.90;;;;;;6122965;23;20016;-77
2024/01/27 08:35:56;;;;;;;87.82;66.40;;;1.30;99.90;;;;;;6098915;23;20045;-77
2024/01/27 08:38:22;;;;;;;88.00;65.78;;;1.30;99.90;;;;;;6098997;23;20063;-77
2024/01/27 08:40:48;;;;;;;84.50;69.03;;;1.40;99.90;;;;;;6099586;23;20103;-77
2024/01/27 08:43:13;;;;;;;47.28;19.73;;;1.50;99.90;;;;;;6098963;23;20057;-76
2024/01/27 08:45:39;;;;;;;56.88;18.27;;;1.50;99.90;;;;;;6099234;23;20076;-76
2024/01/27 08:48:06;;;;;;;91.28;70.70;;;1.60;99.90;;;;;;6123633;23;20010;-76
2024/01/27 08:50:32;;;;;;;88.15;68.30;;;1.70;99.90;;;;;;6099018;23;20009;-76
2024/01/27 08:52:57;;;;;;;84.95;64.88;;;1.70;99.90;;;;;;6099095;23;20407;-76
2024/01/27 08:55:24;;;;;;;57.58;22.15;;;1.80;99.90;;;;;;6099187;23;20443;-76
2024/01/27 08:57:50;;;;;;;82.07;62.55;;;1.80;99.90;;;;;;6099067;23;20018;-76
2024/01/27 09:00:16;;;;;;;76.57;62.78;;;1.90;99.90;;;;;;6098568;23;20018;-76
2024/01/27 09:02:42;;;;;;;52.55;22.33;;;2.00;99.90;;;;;;6098626;23;20018;-76
2024/01/27 09:05:09;;;;;;;76.72;60.95;;;2.00;99.90;;;;;;6098472;23;20014;-77
2024/01/27 09:07:35;;;;;;;47.63;19.30;;;2.00;99.90;;;;;;6098666;23;20343;-77
2024/01/27 09:10:00;;;;;;;83.47;65.18;;;2.10;99.90;;;;;;6098764;23;20009;-76
2024/01/27 09:12:26;;;;;;;77.80;63.63;;;2.10;99.90;;;;;;6098151;23;20018;-76
2024/01/27 09:14:53;;;;;;;68.28;56.03;;;2.20;99.90;;;;;;6098403;23;20017;-77
2024/01/27 09:17:19;;;;;;;77.20;62.65;;;2.20;99.90;;;;;;6098466;23;20396;-77
2024/01/27 09:19:45;;;;;;;76.43;63.00;;;2.30;99.90;;;;;;6098353;23;20014;-77
2024/01/27 09:22:10;;;;;;;72.85;59.28;;;2.30;99.90;;;;;;6098856;23;20092;-75
2024/01/27 09:24:36;;;;;;;78.90;61.78;;;2.40;99.90;;;;;;6098314;23;20493;-76
2024/01/27 09:27:02;;;;;;;68.47;56.92;;;2.50;99.90;;;;;;6097863;23;20029;-76
2024/01/27 09:29:28;;;;;;;70.03;57.38;;;2.50;99.90;;;;;;6099591;23;20018;-76
2024/01/27 09:31:54;;;;;;;72.07;61.22;;;2.60;99.90;;;;;;6122900;23;20017;-76
2024/01/27 09:34:20;;;;;;;63.95;54.95;;;2.70;99.90;;;;;;6098264;23;20010;-76
2024/01/27 09:36:45;;;;;;;70.07;50.40;;;2.90;99.90;;;;;;6098560;23;20029;-76
2024/01/27 09:39:11;;;;;;;56.35;47.55;;;3.10;99.90;;;;;;6098623;23;20006;-74
2024/01/27 09:41:38;;;;;;;49.80;40.92;;;3.20;99.90;;;;;;6123121;23;20478;-78
2024/01/27 09:44:04;;;;;;;43.95;38.85;;;3.30;99.90;;;;;;6098565;23;20014;-78
2024/01/27 09:46:31;;;;;;;50.53;39.85;;;3.50;99.90;;;;;;6099305;23;20010;-77
2024/01/27 09:48:57;;;;;;;49.97;38.67;;;3.50;99.90;;;;;;6123483;23;20432;-77
2024/01/27 09:51:24;;;;;;;46.15;34.65;;;3.70;99.90;;;;;;6098146;23;20085;-77
2024/01/27 09:53:51;;;;;;;42.38;30.67;;;3.70;99.90;;;;;;6098272;23;20018;-76
2024/01/27 09:56:18;;;;;;;34.42;29.92;;;3.80;99.90;;;;;;6098450;23;20065;-77
2024/01/27 09:58:45;;;;;;;40.70;28.50;;;4.00;99.90;;;;;;6098860;23;20021;-75
2024/01/27 10:01:11;;;;;;;36.42;26.80;;;4.10;99.90;;;;;;6123049;23;20022;-77
2024/01/27 10:03:40;;;;;;;41.28;26.25;;;4.20;99.90;;;;;;6122602;23;20018;-75
2024/01/27 10:06:08;;;;;;;38.17;25.88;;;4.40;99.90;;;;;;6098861;23;20006;-76
2024/01/27 10:08:34;;;;;;;35.92;25.90;;;4.50;99.90;;;;;;6098219;23;20014;-76
2024/01/27 10:11:04;;;;;;;29.75;21.50;;;4.60;99.90;;;;;;6098784;23;20006;-76
2024/01/27 10:13:30;;;;;;;32.35;23.48;;;4.70;99.90;;;;;;6124515;23;20092;-77
2024/01/27 10:16:14;;;;;;;27.13;19.67;;;4.80;99.90;;;;;;6100442;23;20080;-75
2024/01/27 10:18:40;;;;;;;31.33;19.70;;;4.80;99.90;;;;;;6125080;23;20010;-76
2024/01/27 10:21:13;;;;;;;31.20;19.88;;;4.80;99.90;;;;;;6099977;23;20455;-76
2024/01/27 10:23:40;;;;;;;26.63;18.63;;;4.90;99.90;;;;;;6124808;23;20014;-76
2024/01/27 10:26:08;;;;;;;32.70;20.88;;;5.00;99.90;;;;;;6124636;23;20009;-76
2024/01/27 10:28:34;;;;;;;33.78;22.35;;;5.00;99.90;;;;;;6100310;23;20056;-77
2024/01/27 10:31:12;;;;;;;33.63;20.77;;;5.10;99.90;;;;;;6100676;23;20010;-76
2024/01/27 10:33:38;;;;;;;32.78;20.00;;;5.10;99.90;;;;;;6099820;23;20021;-76
2024/01/27 10:36:04;;;;;;;28.15;17.67;;;5.20;99.90;;;;;;6100242;23;20010;-77
2024/01/27 10:38:38;;;;;;;26.95;16.92;;;5.30;99.90;;;;;;6100018;23;20014;-77
2024/01/27 10:41:10;;;;;;;27.13;16.00;;;5.30;99.90;;;;;;6101084;23;20010;-76
2024/01/27 10:43:36;;;;;;;25.40;15.98;;;5.40;99.90;;;;;;6125724;23;20018;-75
2024/01/27 10:46:06;;;;;;;28.25;18.48;;;5.50;99.90;;;;;;6125029;23;20014;-77
2024/01/27 10:48:36;;;;;;;26.77;15.38;;;5.70;99.90;;;;;;6124726;23;20391;-76
2024/01/27 10:51:07;;;;;;;25.90;15.82;;;5.60;99.90;;;;;;6124912;23;20097;-76
2024/01/27 10:53:35;;;;;;;27.73;17.33;;;5.80;99.90;;;;;;6100574;23;20014;-78
2024/01/27 10:56:03;;;;;;;23.98;14.27;;;5.90;99.90;;;;;;6100876;23;20103;-78
2024/01/27 10:58:30;;;;;;;20.67;13.73;;;6.00;99.90;;;;;;6124486;23;20018;-78
2024/01/27 11:00:58;;;;;;;22.05;13.82;;;6.20;99.90;;;;;;6099843;23;20458;-77
2024/01/27 11:03:25;;;;;;;25.58;15.93;;;6.30;99.90;;;;;;6100669;23;20014;-77
2024/01/27 11:05:52;;;;;;;21.20;12.15;;;6.40;99.90;;;;;;6100272;23;20070;-76
2024/01/27 11:08:18;;;;;;;23.27;12.57;;;6.40;99.90;;;;;;6099967;23;20042;-78
2024/01/27 11:10:44;;;;;;;24.02;13.18;;;6.40;99.90;;;;;;6100329;23;20010;-77
2024/01/27 11:13:11;;;;;;;26.48;13.50;;;6.40;99.90;;;;;;6099744;23;20096;-78
2024/01/27 11:15:37;;;;;;;26.77;14.02;;;6.40;99.90;;;;;;6099982;23;20014;-77
2024/01/27 11:18:04;;;;;;;19.45;11.55;;;6.50;99.90;;;;;;6100328;23;20065;-77
2024/01/27 11:20:33;;;;;;;22.60;12.70;;;6.60;99.90;;;;;;6124455;23;20018;-77
2024/01/27 11:23:14;;;;;;;21.27;12.40;;;6.60;99.90;;;;;;6123481;23;20014;-77
2024/01/27 11:25:41;;;;;;;22.40;11.95;;;6.70;99.90;;;;;;6124346;23;20021;-77
2024/01/27 11:28:14;;;;;;;20.05;11.02;;;6.80;99.90;;;;;;6099772;23;20014;-78
2024/01/27 11:30:47;;;;;;;24.02;13.05;;;6.90;99.90;;;;;;6099570;23;20017;-77
2024/01/27 11:33:13;;;;;;;20.73;11.85;;;7.00;99.90;;;;;;6100289;23;20014;-77
2024/01/27 11:35:38;;;;;;;20.85;12.07;;;7.30;99.90;;;;;;6099347;23;20390;-77
2024/01/27 11:38:04;;;;;;;23.10;12.52;;;7.60;99.90;;;;;;6124563;23;20045;-77
2024/01/27 11:40:30;;;;;;;22.15;11.80;;;7.70;99.90;;;;;;6099714;23;20034;-77
2024/01/27 11:42:59;;;;;;;23.90;12.27;;;7.80;99.90;;;;;;6099449;23;20021;-79
2024/01/27 11:45:25;;;;;;;21.73;10.85;;;8.00;99.90;;;;;;6099869;23;20010;-77
2024/01/27 11:47:51;;;;;;;21.40;10.98;;;8.40;99.90;;;;;;6100055;23;20017;-77
2024/01/27 11:50:20;;;;;;;20.77;10.63;;;8.90;99.90;;;;;;6123512;23;20018;-77
2024/01/27 11:52:48;;;;;;;20.42;9.60;;;9.30;99.90;;;;;;6123220;23;20466;-77
2024/01/27 11:55:19;;;;;;;20.10;10.32;;;9.80;99.90;;;;;;6098956;23;20018;-77
2024/01/27 11:57:44;;;;;;;22.70;10.30;;;10.20;99.90;;;;;;6098570;23;20451;-78
2024/01/27 12:00:10;;;;;;;18.20;9.93;;;10.60;99.90;;;;;;6099436;23;20045;-77
2024/01/27 12:02:37;;;;;;;21.17;10.75;;;10.90;99.90;;;;;;6098822;23;20029;-77
2024/01/27 12:05:04;;;;;;;23.13;10.05;;;11.20;99.90;;;;;;6098825;23;20021;-77
2024/01/27 12:07:31;;;;;;;17.13;9.25;;;11.30;99.90;;;;;;6124225;23;20041;-77
2024/01/27 12:09:56;;;;;;;20.05;9.95;;;11.40;99.90;;;;;;6124522;23;20488;-77
2024/01/27 12:12:22;;;;;;;18.48;10.05;;;11.40;99.90;;;;;;6099909;23;20021;-77
2024/01/27 12:14:49;;;;;;;17.75;8.15;;;11.50;99.90;;;;;;6098549;23;20014;-77
2024/01/27 12:17:15;;;;;;;19.77;9.55;;;11.50;99.90;;;;;;6099414;23;20451;-75
2024/01/27 12:19:54;;;;;;;20.83;9.07;;;11.60;99.90;;;;;;6098569;23;20013;-74
2024/01/27 12:22:29;;;;;;;16.35;9.10;;;11.70;99.90;;;;;;6099264;23;20018;-74
2024/01/27 12:25:07;;;;;;;19.33;8.95;;;11.70;99.90;;;;;;6098704;23;20473;-75
2024/01/27 12:27:33;;;;;;;17.50;8.60;;;12.00;99.90;;;;;;6122743;23;20018;-75
2024/01/27 12:30:00;;;;;;;19.80;8.30;;;12.10;99.90;;;;;;6098848;23;20010;-75
2024/01/27 12:32:26;;;;;;;15.63;8.18;;;12.20;99.90;;;;;;6099382;23;20041;-74
2024/01/27 12:34:51;;;;;;;19.13;8.20;;;12.20;99.90;;;;;;6098455;23;20076;-74
2024/01/27 12:37:17;;;;;;;13.57;7.93;;;12.20;99.90;;;;;;6099185;23;20033;-74